sensor_id;sensor_type;location;lat;lon;timestamp;P1;durP1;ratioP1;P2;durP2;ratioP2
51901;SDS011;37929;53.218;6.548;2023-03-14T00:00:35;10.38;;;2.90;;
51901;SDS011;37929;53.218;6.548;2023-03-14T00:03:02;17.80;;;3.70;;
51901;SDS011;37929;53.218;6.548;2023-03-14T00:05:28;10.55;;;3.22;;
51901;SDS011;37929;53.218;6.548;2023-03-14T00:07:54;12.40;;;3.47;;
51901;SDS011;37929;53.218;6.548;2023-03-14T00:10:19;15.00;;;3.65;;
51901;SDS011;37929;53.218;6.548;2023-03-14T00:12:45;15.00;;;3.83;;
51901;SDS011;37929;53.218;6.548;2023-03-14T00:15:11;14.57;;;3.25;;
51901;SDS011;37929;53.218;6.548;2023-03-14T00:17:37;14.70;;;3.72;;
51901;SDS011;37929;53.218;6.548;2023-03-14T00:20:04;12.35;;;3.08;;
51901;SDS011;37929;53.218;6.548;2023-03-14T00:22:36;11.18;;;3.17;;
51901;SDS011;37929;53.218;6.548;2023-03-14T00:25:03;10.55;;;3.30;;
51901;SDS011;37929;53.218;6.548;2023-03-14T00:27:31;11.77;;;2.95;;
51901;SDS011;37929;53.218;6.548;2023-03-14T00:29:57;10.48;;;3.35;;
51901;SDS011;37929;53.218;6.548;2023-03-14T00:32:23;14.23;;;3.15;;
51901;SDS011;37929;53.218;6.548;2023-03-14T00:34:49;15.25;;;2.85;;
51901;SDS011;37929;53.218;6.548;2023-03-14T00:37:15;23.05;;;4.38;;
51901;SDS011;37929;53.218;6.548;2023-03-14T00:39:41;15.32;;;3.95;;
51901;SDS011;37929;53.218;6.548;2023-03-14T00:42:07;12.27;;;2.67;;
51901;SDS011;37929;53.218;6.548;2023-03-14T00:44:32;13.40;;;2.83;;
51901;SDS011;37929;53.218;6.548;2023-03-14T00:46:58;15.70;;;3.90;;
51901;SDS011;37929;53.218;6.548;2023-03-14T00:49:24;11.38;;;3.15;;
51901;SDS011;37929;53.218;6.548;2023-03-14T00:51:50;13.15;;;3.80;;
51901;SDS011;37929;53.218;6.548;2023-03-14T00:54:16;14.90;;;3.13;;
51901;SDS011;37929;53.218;6.548;2023-03-14T00:56:43;13.00;;;3.65;;
51901;SDS011;37929;53.218;6.548;2023-03-14T00:59:09;10.70;;;2.85;;
51901;SDS011;37929;53.218;6.548;2023-03-14T01:01:35;18.45;;;3.70;;
51901;SDS011;37929;53.218;6.548;2023-03-14T01:04:00;11.02;;;2.60;;
51901;SDS011;37929;53.218;6.548;2023-03-14T01:06:27;13.38;;;2.90;;
51901;SDS011;37929;53.218;6.548;2023-03-14T01:08:54;9.77;;;3.05;;
51901;SDS011;37929;53.218;6.548;2023-03-14T01:11:22;12.55;;;3.03;;
51901;SDS011;37929;53.218;6.548;2023-03-14T01:13:49;13.48;;;3.42;;
51901;SDS011;37929;53.218;6.548;2023-03-14T01:16:16;10.90;;;3.10;;
51901;SDS011;37929;53.218;6.548;2023-03-14T01:18:43;16.00;;;4.05;;
51901;SDS011;37929;53.218;6.548;2023-03-14T01:21:12;11.65;;;3.50;;
51901;SDS011;37929;53.218;6.548;2023-03-14T01:23:43;10.48;;;3.20;;
51901;SDS011;37929;53.218;6.548;2023-03-14T01:26:14;10.48;;;3.80;;
51901;SDS011;37929;53.218;6.548;2023-03-14T01:28:41;12.52;;;3.58;;
51901;SDS011;37929;53.218;6.548;2023-03-14T01:31:08;12.77;;;3.65;;
51901;SDS011;37929;53.218;6.548;2023-03-14T01:33:35;10.73;;;2.92;;
51901;SDS011;37929;53.218;6.548;2023-03-14T01:36:02;8.32;;;2.40;;
51901;SDS011;37929;53.218;6.548;2023-03-14T01:38:28;7.38;;;2.30;;
51901;SDS011;37929;53.218;6.548;2023-03-14T01:40:55;11.00;;;3.17;;
51901;SDS011;37929;53.218;6.548;2023-03-14T01:43:21;11.30;;;2.45;;
51901;SDS011;37929;53.218;6.548;2023-03-14T01:51:28;12.32;;;2.75;;
51901;SDS011;37929;53.218;6.548;2023-03-14T01:54:05;10.20;;;2.17;;
51901;SDS011;37929;53.218;6.548;2023-03-14T01:56:38;11.05;;;2.55;;
51901;SDS011;37929;53.218;6.548;2023-03-14T01:59:08;10.90;;;2.50;;
51901;SDS011;37929;53.218;6.548;2023-03-14T02:01:36;9.18;;;2.17;;
51901;SDS011;37929;53.218;6.548;2023-03-14T02:04:03;6.50;;;2.30;;
51901;SDS011;37929;53.218;6.548;2023-03-14T02:06:33;11.07;;;2.63;;
51901;SDS011;37929;53.218;6.548;2023-03-14T02:09:06;13.52;;;2.20;;
51901;SDS011;37929;53.218;6.548;2023-03-14T02:11:32;9.15;;;1.95;;
51901;SDS011;37929;53.218;6.548;2023-03-14T02:13:58;10.55;;;2.55;;
51901;SDS011;37929;53.218;6.548;2023-03-14T02:16:26;7.43;;;2.15;;
51901;SDS011;37929;53.218;6.548;2023-03-14T02:18:51;8.27;;;2.20;;
51901;SDS011;37929;53.218;6.548;2023-03-14T02:21:20;8.15;;;2.45;;
51901;SDS011;37929;53.218;6.548;2023-03-14T02:26:38;10.15;;;2.20;;
51901;SDS011;37929;53.218;6.548;2023-03-14T02:29:08;9.75;;;2.72;;
51901;SDS011;37929;53.218;6.548;2023-03-14T02:31:34;7.95;;;2.10;;
51901;SDS011;37929;53.218;6.548;2023-03-14T02:34:00;7.57;;;2.22;;
51901;SDS011;37929;53.218;6.548;2023-03-14T02:36:27;16.27;;;2.33;;
51901;SDS011;37929;53.218;6.548;2023-03-14T02:39:08;6.38;;;1.90;;
51901;SDS011;37929;53.218;6.548;2023-03-14T02:41:49;7.00;;;2.00;;
51901;SDS011;37929;53.218;6.548;2023-03-14T02:44:15;8.52;;;2.10;;
51901;SDS011;37929;53.218;6.548;2023-03-14T02:46:41;9.68;;;2.00;;
51901;SDS011;37929;53.218;6.548;2023-03-14T02:49:07;8.23;;;2.35;;
51901;SDS011;37929;53.218;6.548;2023-03-14T02:51:35;5.38;;;2.28;;
51901;SDS011;37929;53.218;6.548;2023-03-14T02:54:02;7.90;;;2.50;;
51901;SDS011;37929;53.218;6.548;2023-03-14T02:56:28;6.82;;;2.20;;
51901;SDS011;37929;53.218;6.548;2023-03-14T02:58:54;8.07;;;2.55;;
51901;SDS011;37929;53.218;6.548;2023-03-14T03:01:20;6.53;;;2.28;;
51901;SDS011;37929;53.218;6.548;2023-03-14T03:03:45;7.47;;;2.90;;
51901;SDS011;37929;53.218;6.548;2023-03-14T03:06:11;8.15;;;2.33;;
51901;SDS011;37929;53.218;6.548;2023-03-14T03:08:37;7.13;;;2.58;;
51901;SDS011;37929;53.218;6.548;2023-03-14T03:11:04;12.50;;;2.60;;
51901;SDS011;37929;53.218;6.548;2023-03-14T03:13:31;10.55;;;3.15;;
51901;SDS011;37929;53.218;6.548;2023-03-14T03:15:56;10.25;;;3.20;;
51901;SDS011;37929;53.218;6.548;2023-03-14T03:18:22;7.22;;;3.30;;
51901;SDS011;37929;53.218;6.548;2023-03-14T03:20:48;7.32;;;2.30;;
51901;SDS011;37929;53.218;6.548;2023-03-14T03:23:14;8.23;;;3.22;;
51901;SDS011;37929;53.218;6.548;2023-03-14T03:25:40;8.10;;;2.78;;
51901;SDS011;37929;53.218;6.548;2023-03-14T03:28:06;8.75;;;2.80;;
51901;SDS011;37929;53.218;6.548;2023-03-14T03:30:39;9.45;;;3.30;;
51901;SDS011;37929;53.218;6.548;2023-03-14T03:33:06;8.48;;;2.90;;
51901;SDS011;37929;53.218;6.548;2023-03-14T03:35:32;12.85;;;3.05;;
51901;SDS011;37929;53.218;6.548;2023-03-14T03:37:58;9.25;;;2.97;;
51901;SDS011;37929;53.218;6.548;2023-03-14T03:40:24;11.98;;;3.25;;
51901;SDS011;37929;53.218;6.548;2023-03-14T03:42:50;7.80;;;3.00;;
51901;SDS011;37929;53.218;6.548;2023-03-14T03:45:16;12.60;;;3.50;;
51901;SDS011;37929;53.218;6.548;2023-03-14T03:47:42;10.80;;;2.95;;
51901;SDS011;37929;53.218;6.548;2023-03-14T03:50:08;6.63;;;3.28;;
51901;SDS011;37929;53.218;6.548;2023-03-14T03:52:34;10.75;;;3.20;;
51901;SDS011;37929;53.218;6.548;2023-03-14T03:54:59;12.38;;;4.07;;
51901;SDS011;37929;53.218;6.548;2023-03-14T03:57:25;7.28;;;2.83;;
51901;SDS011;37929;53.218;6.548;2023-03-14T03:59:51;10.18;;;3.60;;
51901;SDS011;37929;53.218;6.548;2023-03-14T04:02:17;7.68;;;3.25;;
51901;SDS011;37929;53.218;6.548;2023-03-14T04:04:44;11.43;;;3.95;;
51901;SDS011;37929;53.218;6.548;2023-03-14T04:07:09;17.20;;;3.55;;
51901;SDS011;37929;53.218;6.548;2023-03-14T04:09:38;10.13;;;3.70;;
51901;SDS011;37929;53.218;6.548;2023-03-14T04:12:07;12.10;;;3.70;;
51901;SDS011;37929;53.218;6.548;2023-03-14T04:14:33;8.95;;;3.15;;
51901;SDS011;37929;53.218;6.548;2023-03-14T04:16:58;14.85;;;3.78;;
51901;SDS011;37929;53.218;6.548;2023-03-14T04:19:24;13.10;;;3.55;;
51901;SDS011;37929;53.218;6.548;2023-03-14T04:21:50;14.00;;;3.53;;
51901;SDS011;37929;53.218;6.548;2023-03-14T04:24:15;11.75;;;3.35;;
51901;SDS011;37929;53.218;6.548;2023-03-14T04:26:41;13.07;;;4.43;;
51901;SDS011;37929;53.218;6.548;2023-03-14T04:29:07;10.43;;;3.30;;
51901;SDS011;37929;53.218;6.548;2023-03-14T04:31:33;12.25;;;3.78;;
51901;SDS011;37929;53.218;6.548;2023-03-14T04:33:58;9.25;;;3.50;;
51901;SDS011;37929;53.218;6.548;2023-03-14T04:36:24;14.00;;;4.20;;
51901;SDS011;37929;53.218;6.548;2023-03-14T04:38:50;20.25;;;5.32;;
51901;SDS011;37929;53.218;6.548;2023-03-14T04:41:15;10.75;;;4.30;;
51901;SDS011;37929;53.218;6.548;2023-03-14T04:43:41;10.05;;;4.88;;
51901;SDS011;37929;53.218;6.548;2023-03-14T04:46:07;11.65;;;4.20;;
51901;SDS011;37929;53.218;6.548;2023-03-14T04:48:33;10.00;;;4.45;;
51901;SDS011;37929;53.218;6.548;2023-03-14T04:50:58;13.50;;;4.90;;
51901;SDS011;37929;53.218;6.548;2023-03-14T04:53:24;14.98;;;5.78;;
51901;SDS011;37929;53.218;6.548;2023-03-14T04:55:51;14.18;;;6.07;;
51901;SDS011;37929;53.218;6.548;2023-03-14T04:58:18;15.40;;;5.90;;
51901;SDS011;37929;53.218;6.548;2023-03-14T05:00:45;12.80;;;5.22;;
51901;SDS011;37929;53.218;6.548;2023-03-14T05:03:11;13.80;;;5.82;;
51901;SDS011;37929;53.218;6.548;2023-03-14T05:05:37;10.68;;;5.15;;
51901;SDS011;37929;53.218;6.548;2023-03-14T05:08:03;13.90;;;5.30;;
51901;SDS011;37929;53.218;6.548;2023-03-14T05:10:29;13.80;;;5.93;;
51901;SDS011;37929;53.218;6.548;2023-03-14T05:12:55;13.52;;;5.40;;
51901;SDS011;37929;53.218;6.548;2023-03-14T05:15:21;13.70;;;5.63;;
51901;SDS011;37929;53.218;6.548;2023-03-14T05:17:46;18.65;;;5.65;;
51901;SDS011;37929;53.218;6.548;2023-03-14T05:20:14;13.85;;;5.47;;
51901;SDS011;37929;53.218;6.548;2023-03-14T05:22:40;10.98;;;5.90;;
51901;SDS011;37929;53.218;6.548;2023-03-14T05:25:06;12.82;;;5.30;;
51901;SDS011;37929;53.218;6.548;2023-03-14T05:27:33;17.75;;;5.57;;
51901;SDS011;37929;53.218;6.548;2023-03-14T05:29:59;11.95;;;4.65;;
51901;SDS011;37929;53.218;6.548;2023-03-14T05:32:24;17.48;;;5.55;;
51901;SDS011;37929;53.218;6.548;2023-03-14T05:34:50;10.38;;;4.43;;
51901;SDS011;37929;53.218;6.548;2023-03-14T05:37:16;12.90;;;5.25;;
51901;SDS011;37929;53.218;6.548;2023-03-14T05:39:42;9.65;;;4.95;;
51901;SDS011;37929;53.218;6.548;2023-03-14T05:42:07;11.30;;;5.13;;
51901;SDS011;37929;53.218;6.548;2023-03-14T05:44:33;14.10;;;5.90;;
51901;SDS011;37929;53.218;6.548;2023-03-14T05:46:59;12.88;;;5.20;;
51901;SDS011;37929;53.218;6.548;2023-03-14T05:49:25;9.45;;;3.88;;
51901;SDS011;37929;53.218;6.548;2023-03-14T05:51:50;7.50;;;4.15;;
51901;SDS011;37929;53.218;6.548;2023-03-14T05:54:16;13.45;;;4.45;;
51901;SDS011;37929;53.218;6.548;2023-03-14T05:56:42;10.23;;;4.20;;
51901;SDS011;37929;53.218;6.548;2023-03-14T05:59:08;8.77;;;4.90;;
51901;SDS011;37929;53.218;6.548;2023-03-14T06:01:34;9.93;;;3.45;;
51901;SDS011;37929;53.218;6.548;2023-03-14T06:04:00;7.32;;;4.03;;
51901;SDS011;37929;53.218;6.548;2023-03-14T06:06:26;9.68;;;3.78;;
51901;SDS011;37929;53.218;6.548;2023-03-14T06:08:52;9.10;;;3.08;;
51901;SDS011;37929;53.218;6.548;2023-03-14T06:11:17;5.07;;;3.13;;
51901;SDS011;37929;53.218;6.548;2023-03-14T06:13:43;6.25;;;3.03;;
51901;SDS011;37929;53.218;6.548;2023-03-14T06:16:09;5.13;;;3.30;;
51901;SDS011;37929;53.218;6.548;2023-03-14T06:18:35;3.95;;;2.83;;
51901;SDS011;37929;53.218;6.548;2023-03-14T06:21:00;5.70;;;3.10;;
51901;SDS011;37929;53.218;6.548;2023-03-14T06:23:26;7.07;;;3.40;;
51901;SDS011;37929;53.218;6.548;2023-03-14T06:25:52;6.32;;;3.00;;
51901;SDS011;37929;53.218;6.548;2023-03-14T06:28:18;7.28;;;3.13;;
51901;SDS011;37929;53.218;6.548;2023-03-14T06:30:43;4.95;;;1.73;;
51901;SDS011;37929;53.218;6.548;2023-03-14T06:33:09;3.28;;;1.48;;
51901;SDS011;37929;53.218;6.548;2023-03-14T06:35:35;3.97;;;1.10;;
51901;SDS011;37929;53.218;6.548;2023-03-14T06:38:01;4.18;;;1.10;;
51901;SDS011;37929;53.218;6.548;2023-03-14T06:40:27;7.78;;;1.70;;
51901;SDS011;37929;53.218;6.548;2023-03-14T06:42:52;5.25;;;1.55;;
51901;SDS011;37929;53.218;6.548;2023-03-14T06:45:18;8.77;;;1.52;;
51901;SDS011;37929;53.218;6.548;2023-03-14T06:47:44;10.93;;;1.90;;
51901;SDS011;37929;53.218;6.548;2023-03-14T06:50:10;14.75;;;3.13;;
51901;SDS011;37929;53.218;6.548;2023-03-14T06:52:36;6.35;;;2.25;;
51901;SDS011;37929;53.218;6.548;2023-03-14T06:55:02;6.03;;;1.45;;
51901;SDS011;37929;53.218;6.548;2023-03-14T06:57:28;8.27;;;1.58;;
51901;SDS011;37929;53.218;6.548;2023-03-14T06:59:54;4.55;;;1.58;;
51901;SDS011;37929;53.218;6.548;2023-03-14T07:02:20;9.23;;;1.80;;
51901;SDS011;37929;53.218;6.548;2023-03-14T07:04:47;4.95;;;1.17;;
51901;SDS011;37929;53.218;6.548;2023-03-14T07:07:12;9.70;;;1.40;;
51901;SDS011;37929;53.218;6.548;2023-03-14T07:09:38;9.57;;;1.40;;
51901;SDS011;37929;53.218;6.548;2023-03-14T07:12:04;8.23;;;2.10;;
51901;SDS011;37929;53.218;6.548;2023-03-14T07:14:30;7.22;;;1.20;;
51901;SDS011;37929;53.218;6.548;2023-03-14T07:16:56;7.45;;;1.50;;
51901;SDS011;37929;53.218;6.548;2023-03-14T07:19:22;3.35;;;1.02;;
51901;SDS011;37929;53.218;6.548;2023-03-14T07:21:48;3.90;;;0.98;;
51901;SDS011;37929;53.218;6.548;2023-03-14T07:24:14;3.53;;;0.80;;
51901;SDS011;37929;53.218;6.548;2023-03-14T07:26:40;2.17;;;0.70;;
51901;SDS011;37929;53.218;6.548;2023-03-14T07:29:05;4.43;;;0.90;;
51901;SDS011;37929;53.218;6.548;2023-03-14T07:31:31;2.28;;;0.80;;
51901;SDS011;37929;53.218;6.548;2023-03-14T07:33:57;2.03;;;0.90;;
51901;SDS011;37929;53.218;6.548;2023-03-14T07:36:23;4.32;;;1.05;;
51901;SDS011;37929;53.218;6.548;2023-03-14T07:38:49;2.53;;;0.93;;
51901;SDS011;37929;53.218;6.548;2023-03-14T07:41:14;4.38;;;1.40;;
51901;SDS011;37929;53.218;6.548;2023-03-14T07:43:40;1.45;;;0.70;;
51901;SDS011;37929;53.218;6.548;2023-03-14T07:46:07;3.33;;;0.90;;
51901;SDS011;37929;53.218;6.548;2023-03-14T07:48:33;5.43;;;1.35;;
51901;SDS011;37929;53.218;6.548;2023-03-14T07:50:58;2.00;;;0.73;;
51901;SDS011;37929;53.218;6.548;2023-03-14T07:53:25;1.35;;;0.65;;
51901;SDS011;37929;53.218;6.548;2023-03-14T07:55:51;3.28;;;0.80;;
51901;SDS011;37929;53.218;6.548;2023-03-14T07:58:18;3.05;;;1.10;;
51901;SDS011;37929;53.218;6.548;2023-03-14T08:00:44;4.82;;;1.05;;
51901;SDS011;37929;53.218;6.548;2023-03-14T08:03:10;6.90;;;1.00;;
51901;SDS011;37929;53.218;6.548;2023-03-14T08:05:36;4.13;;;1.42;;
51901;SDS011;37929;53.218;6.548;2023-03-14T08:08:02;3.92;;;0.90;;
51901;SDS011;37929;53.218;6.548;2023-03-14T08:10:29;2.55;;;0.85;;
51901;SDS011;37929;53.218;6.548;2023-03-14T08:12:56;2.80;;;0.95;;
51901;SDS011;37929;53.218;6.548;2023-03-14T08:15:23;2.90;;;1.00;;
51901;SDS011;37929;53.218;6.548;2023-03-14T08:17:50;1.80;;;0.88;;
51901;SDS011;37929;53.218;6.548;2023-03-14T08:20:16;6.18;;;0.90;;
51901;SDS011;37929;53.218;6.548;2023-03-14T08:22:43;3.35;;;0.90;;
51901;SDS011;37929;53.218;6.548;2023-03-14T08:25:09;3.05;;;1.27;;
51901;SDS011;37929;53.218;6.548;2023-03-14T08:27:35;6.10;;;1.25;;
51901;SDS011;37929;53.218;6.548;2023-03-14T08:30:04;5.88;;;0.95;;
51901;SDS011;37929;53.218;6.548;2023-03-14T08:32:30;4.93;;;1.00;;
51901;SDS011;37929;53.218;6.548;2023-03-14T08:34:56;4.18;;;0.93;;
51901;SDS011;37929;53.218;6.548;2023-03-14T08:37:22;2.47;;;1.00;;
51901;SDS011;37929;53.218;6.548;2023-03-14T08:39:49;4.47;;;1.30;;
51901;SDS011;37929;53.218;6.548;2023-03-14T08:42:15;7.22;;;1.50;;
51901;SDS011;37929;53.218;6.548;2023-03-14T08:44:41;4.93;;;1.30;;
51901;SDS011;37929;53.218;6.548;2023-03-14T08:47:07;7.90;;;1.42;;
51901;SDS011;37929;53.218;6.548;2023-03-14T08:49:33;6.70;;;1.25;;
51901;SDS011;37929;53.218;6.548;2023-03-14T08:51:59;7.78;;;1.75;;
51901;SDS011;37929;53.218;6.548;2023-03-14T08:54:28;5.88;;;1.52;;
51901;SDS011;37929;53.218;6.548;2023-03-14T08:56:54;4.10;;;1.35;;
51901;SDS011;37929;53.218;6.548;2023-03-14T08:59:20;14.73;;;2.05;;
51901;SDS011;37929;53.218;6.548;2023-03-14T09:01:46;7.00;;;2.30;;
51901;SDS011;37929;53.218;6.548;2023-03-14T09:04:12;8.40;;;1.98;;
51901;SDS011;37929;53.218;6.548;2023-03-14T09:06:38;9.80;;;1.90;;
51901;SDS011;37929;53.218;6.548;2023-03-14T09:09:04;7.10;;;1.77;;
51901;SDS011;37929;53.218;6.548;2023-03-14T09:11:30;9.00;;;2.05;;
51901;SDS011;37929;53.218;6.548;2023-03-14T09:13:57;13.15;;;3.05;;
51901;SDS011;37929;53.218;6.548;2023-03-14T09:16:23;15.90;;;2.60;;
51901;SDS011;37929;53.218;6.548;2023-03-14T09:18:49;11.25;;;3.05;;
51901;SDS011;37929;53.218;6.548;2023-03-14T09:21:18;7.38;;;2.25;;
51901;SDS011;37929;53.218;6.548;2023-03-14T09:23:43;11.20;;;2.10;;
51901;SDS011;37929;53.218;6.548;2023-03-14T09:26:10;13.85;;;2.15;;
51901;SDS011;37929;53.218;6.548;2023-03-14T09:28:36;14.85;;;2.38;;
51901;SDS011;37929;53.218;6.548;2023-03-14T09:31:06;12.80;;;2.50;;
51901;SDS011;37929;53.218;6.548;2023-03-14T09:33:35;13.38;;;2.88;;
51901;SDS011;37929;53.218;6.548;2023-03-14T09:36:02;8.93;;;1.80;;
51901;SDS011;37929;53.218;6.548;2023-03-14T09:38:28;16.65;;;3.08;;
51901;SDS011;37929;53.218;6.548;2023-03-14T09:40:54;13.63;;;2.60;;
51901;SDS011;37929;53.218;6.548;2023-03-14T09:43:22;12.10;;;2.28;;
51901;SDS011;37929;53.218;6.548;2023-03-14T09:45:51;9.07;;;2.00;;
51901;SDS011;37929;53.218;6.548;2023-03-14T09:48:21;6.95;;;1.83;;
51901;SDS011;37929;53.218;6.548;2023-03-14T09:50:56;9.65;;;2.47;;
51901;SDS011;37929;53.218;6.548;2023-03-14T09:53:58;10.75;;;1.70;;
51901;SDS011;37929;53.218;6.548;2023-03-14T09:56:21;10.88;;;1.73;;
51901;SDS011;37929;53.218;6.548;2023-03-14T09:58:56;9.45;;;2.35;;
51901;SDS011;37929;53.218;6.548;2023-03-14T10:01:34;12.82;;;2.30;;
51901;SDS011;37929;53.218;6.548;2023-03-14T10:04:01;9.20;;;3.00;;
51901;SDS011;37929;53.218;6.548;2023-03-14T10:06:31;20.48;;;2.65;;
51901;SDS011;37929;53.218;6.548;2023-03-14T10:08:56;10.75;;;2.17;;
51901;SDS011;37929;53.218;6.548;2023-03-14T10:11:23;16.65;;;2.40;;
51901;SDS011;37929;53.218;6.548;2023-03-14T10:14:03;10.15;;;2.05;;
51901;SDS011;37929;53.218;6.548;2023-03-14T10:16:35;12.55;;;2.42;;
51901;SDS011;37929;53.218;6.548;2023-03-14T10:19:06;11.60;;;2.30;;
51901;SDS011;37929;53.218;6.548;2023-03-14T10:21:40;8.52;;;1.70;;
51901;SDS011;37929;53.218;6.548;2023-03-14T10:24:26;10.48;;;2.08;;
51901;SDS011;37929;53.218;6.548;2023-03-14T10:26:55;11.35;;;2.67;;
51901;SDS011;37929;53.218;6.548;2023-03-14T10:29:28;10.93;;;1.92;;
51901;SDS011;37929;53.218;6.548;2023-03-14T10:32:01;14.55;;;1.85;;
51901;SDS011;37929;53.218;6.548;2023-03-14T10:34:33;8.97;;;1.70;;
51901;SDS011;37929;53.218;6.548;2023-03-14T10:37:14;8.60;;;2.10;;
51901;SDS011;37929;53.218;6.548;2023-03-14T10:39:51;8.65;;;1.95;;
51901;SDS011;37929;53.218;6.548;2023-03-14T10:42:19;9.40;;;1.83;;
51901;SDS011;37929;53.218;6.548;2023-03-14T10:45:00;7.85;;;1.63;;
51901;SDS011;37929;53.218;6.548;2023-03-14T10:47:33;7.90;;;1.63;;
51901;SDS011;37929;53.218;6.548;2023-03-14T10:50:19;9.13;;;1.60;;
51901;SDS011;37929;53.218;6.548;2023-03-14T10:52:49;7.93;;;1.80;;
51901;SDS011;37929;53.218;6.548;2023-03-14T10:55:18;10.43;;;2.15;;
51901;SDS011;37929;53.218;6.548;2023-03-14T10:57:44;11.38;;;1.73;;
51901;SDS011;37929;53.218;6.548;2023-03-14T11:00:14;8.80;;;2.03;;
51901;SDS011;37929;53.218;6.548;2023-03-14T11:11:15;7.70;;;1.45;;
51901;SDS011;37929;53.218;6.548;2023-03-14T11:24:44;6.20;;;1.15;;
51901;SDS011;37929;53.218;6.548;2023-03-14T11:27:23;6.63;;;1.30;;
51901;SDS011;37929;53.218;6.548;2023-03-14T11:37:45;4.03;;;1.13;;
51901;SDS011;37929;53.218;6.548;2023-03-14T11:42:44;5.32;;;1.67;;
51901;SDS011;37929;53.218;6.548;2023-03-14T11:45:16;4.07;;;1.27;;
51901;SDS011;37929;53.218;6.548;2023-03-14T11:47:45;4.90;;;1.50;;
51901;SDS011;37929;53.218;6.548;2023-03-14T11:50:33;5.93;;;1.45;;
51901;SDS011;37929;53.218;6.548;2023-03-14T11:53:03;5.38;;;1.55;;
51901;SDS011;37929;53.218;6.548;2023-03-14T11:55:35;5.27;;;1.60;;
51901;SDS011;37929;53.218;6.548;2023-03-14T11:58:08;3.83;;;1.58;;
51901;SDS011;37929;53.218;6.548;2023-03-14T12:00:41;4.85;;;1.00;;
51901;SDS011;37929;53.218;6.548;2023-03-14T12:06:46;8.68;;;1.50;;
51901;SDS011;37929;53.218;6.548;2023-03-14T12:08:53;13.38;;;2.58;;
51901;SDS011;37929;53.218;6.548;2023-03-14T12:11:39;5.53;;;1.10;;
51901;SDS011;37929;53.218;6.548;2023-03-14T12:14:28;8.27;;;2.17;;
51901;SDS011;37929;53.218;6.548;2023-03-14T12:19:36;8.67;;;1.33;;
51901;SDS011;37929;53.218;6.548;2023-03-14T12:22:17;8.63;;;1.40;;
51901;SDS011;37929;53.218;6.548;2023-03-14T12:25:00;6.70;;;1.88;;
51901;SDS011;37929;53.218;6.548;2023-03-14T12:35:40;8.13;;;1.60;;
51901;SDS011;37929;53.218;6.548;2023-03-14T12:43:47;4.68;;;1.52;;
51901;SDS011;37929;53.218;6.548;2023-03-14T12:48:53;9.65;;;1.40;;
51901;SDS011;37929;53.218;6.548;2023-03-14T12:51:20;7.18;;;1.85;;
51901;SDS011;37929;53.218;6.548;2023-03-14T12:57:04;11.10;;;2.17;;
51901;SDS011;37929;53.218;6.548;2023-03-14T12:59:46;6.68;;;1.60;;
51901;SDS011;37929;53.218;6.548;2023-03-14T13:02:40;4.32;;;1.38;;
51901;SDS011;37929;53.218;6.548;2023-03-14T13:05:11;5.25;;;1.67;;
51901;SDS011;37929;53.218;6.548;2023-03-14T13:10:20;3.85;;;1.55;;
51901;SDS011;37929;53.218;6.548;2023-03-14T13:12:51;7.65;;;1.60;;
51901;SDS011;37929;53.218;6.548;2023-03-14T13:20:53;4.43;;;1.20;;
51901;SDS011;37929;53.218;6.548;2023-03-14T13:23:26;7.90;;;1.50;;
51901;SDS011;37929;53.218;6.548;2023-03-14T13:25:59;4.90;;;1.17;;
51901;SDS011;37929;53.218;6.548;2023-03-14T13:28:26;5.07;;;1.60;;
51901;SDS011;37929;53.218;6.548;2023-03-14T13:30:55;5.53;;;1.45;;
51901;SDS011;37929;53.218;6.548;2023-03-14T13:33:24;3.90;;;1.10;;
51901;SDS011;37929;53.218;6.548;2023-03-14T13:38:25;4.78;;;1.25;;
51901;SDS011;37929;53.218;6.548;2023-03-14T13:40:56;5.00;;;1.33;;
51901;SDS011;37929;53.218;6.548;2023-03-14T13:43:33;7.82;;;1.65;;
51901;SDS011;37929;53.218;6.548;2023-03-14T13:46:13;7.10;;;1.63;;
51901;SDS011;37929;53.218;6.548;2023-03-14T13:48:48;7.85;;;1.52;;
51901;SDS011;37929;53.218;6.548;2023-03-14T13:51:26;6.22;;;1.15;;
51901;SDS011;37929;53.218;6.548;2023-03-14T13:53:56;9.80;;;1.52;;
51901;SDS011;37929;53.218;6.548;2023-03-14T13:56:25;3.78;;;1.00;;
51901;SDS011;37929;53.218;6.548;2023-03-14T13:58:53;4.40;;;1.25;;
51901;SDS011;37929;53.218;6.548;2023-03-14T14:03:46;8.10;;;1.38;;
51901;SDS011;37929;53.218;6.548;2023-03-14T14:09:14;5.72;;;1.58;;
51901;SDS011;37929;53.218;6.548;2023-03-14T14:11:43;3.55;;;0.80;;
51901;SDS011;37929;53.218;6.548;2023-03-14T14:14:32;3.95;;;1.33;;
51901;SDS011;37929;53.218;6.548;2023-03-14T14:17:06;7.43;;;1.63;;
51901;SDS011;37929;53.218;6.548;2023-03-14T14:19:36;6.00;;;1.70;;
51901;SDS011;37929;53.218;6.548;2023-03-14T14:22:03;4.47;;;1.30;;
51901;SDS011;37929;53.218;6.548;2023-03-14T14:24:30;3.47;;;1.33;;
51901;SDS011;37929;53.218;6.548;2023-03-14T14:27:03;5.97;;;1.50;;
51901;SDS011;37929;53.218;6.548;2023-03-14T14:29:56;5.93;;;1.20;;
51901;SDS011;37929;53.218;6.548;2023-03-14T14:32:23;9.35;;;1.45;;
51901;SDS011;37929;53.218;6.548;2023-03-14T14:37:26;8.07;;;1.60;;
51901;SDS011;37929;53.218;6.548;2023-03-14T14:39:55;7.63;;;1.65;;
51901;SDS011;37929;53.218;6.548;2023-03-14T14:42:30;3.80;;;1.40;;
51901;SDS011;37929;53.218;6.548;2023-03-14T14:44:57;4.72;;;1.85;;
51901;SDS011;37929;53.218;6.548;2023-03-14T14:47:24;6.63;;;1.60;;
51901;SDS011;37929;53.218;6.548;2023-03-14T14:49:53;7.43;;;1.50;;
51901;SDS011;37929;53.218;6.548;2023-03-14T14:52:21;8.35;;;1.50;;
51901;SDS011;37929;53.218;6.548;2023-03-14T14:55:00;10.27;;;2.53;;
51901;SDS011;37929;53.218;6.548;2023-03-14T14:57:33;4.32;;;1.52;;
51901;SDS011;37929;53.218;6.548;2023-03-14T15:00:17;3.72;;;1.23;;
51901;SDS011;37929;53.218;6.548;2023-03-14T15:02:53;8.25;;;1.70;;
51901;SDS011;37929;53.218;6.548;2023-03-14T15:05:27;8.52;;;1.80;;
51901;SDS011;37929;53.218;6.548;2023-03-14T15:07:55;3.60;;;1.42;;
51901;SDS011;37929;53.218;6.548;2023-03-14T15:10:23;3.88;;;1.33;;
51901;SDS011;37929;53.218;6.548;2023-03-14T15:12:49;7.25;;;1.55;;
51901;SDS011;37929;53.218;6.548;2023-03-14T15:15:16;6.43;;;1.45;;
51901;SDS011;37929;53.218;6.548;2023-03-14T15:17:42;7.53;;;1.63;;
51901;SDS011;37929;53.218;6.548;2023-03-14T15:20:10;6.03;;;1.50;;
51901;SDS011;37929;53.218;6.548;2023-03-14T15:22:41;6.20;;;1.23;;
51901;SDS011;37929;53.218;6.548;2023-03-14T15:25:07;3.05;;;1.15;;
51901;SDS011;37929;53.218;6.548;2023-03-14T15:27:35;4.22;;;1.30;;
51901;SDS011;37929;53.218;6.548;2023-03-14T15:30:02;5.93;;;1.75;;
51901;SDS011;37929;53.218;6.548;2023-03-14T15:32:28;4.70;;;1.40;;
51901;SDS011;37929;53.218;6.548;2023-03-14T15:34:56;6.88;;;1.73;;
51901;SDS011;37929;53.218;6.548;2023-03-14T15:37:22;3.72;;;1.30;;
51901;SDS011;37929;53.218;6.548;2023-03-14T15:39:50;6.35;;;1.55;;
51901;SDS011;37929;53.218;6.548;2023-03-14T15:42:16;10.50;;;2.67;;
51901;SDS011;37929;53.218;6.548;2023-03-14T15:44:42;8.10;;;1.48;;
51901;SDS011;37929;53.218;6.548;2023-03-14T15:47:08;5.57;;;1.13;;
51901;SDS011;37929;53.218;6.548;2023-03-14T15:49:35;7.32;;;1.35;;
51901;SDS011;37929;53.218;6.548;2023-03-14T15:52:01;4.32;;;1.10;;
51901;SDS011;37929;53.218;6.548;2023-03-14T15:54:32;2.78;;;1.20;;
51901;SDS011;37929;53.218;6.548;2023-03-14T15:56:59;3.53;;;1.00;;
51901;SDS011;37929;53.218;6.548;2023-03-14T15:59:25;3.55;;;1.10;;
51901;SDS011;37929;53.218;6.548;2023-03-14T16:01:51;7.68;;;1.73;;
51901;SDS011;37929;53.218;6.548;2023-03-14T16:04:17;4.35;;;1.48;;
51901;SDS011;37929;53.218;6.548;2023-03-14T16:06:43;8.10;;;1.45;;
51901;SDS011;37929;53.218;6.548;2023-03-14T16:09:12;8.40;;;1.33;;
51901;SDS011;37929;53.218;6.548;2023-03-14T16:11:38;7.03;;;1.90;;